Time;durP1;ratioP1;P1;durP2;ratioP2;P2;SDS_P1;SDS_P2;PMS_P1;PMS_P2;Temp;Humidity;BMP_temperature;BMP_pressure;BME280_temperature;BME280_humidity;BME280_pressure;Samples;Min_cycle;Max_cycle;Signal;HPM_P1;HPM_P2
2024/02/11 00:02:16;;;;;;;0.32;0.30;;;13.60;70.70;;;;;;2216232;56;21752;-71
2024/02/11 00:04:45;;;;;;;0.65;0.30;;;13.50;70.70;;;;;;2435857;56;21393;-70
2024/02/11 00:07:12;;;;;;;0.93;0.30;;;13.40;70.60;;;;;;2435889;56;21901;-68
2024/02/11 00:09:39;;;;;;;0.75;0.40;;;13.30;70.40;;;;;;2216667;56;21393;-67
2024/02/11 00:12:07;;;;;;;0.98;0.30;;;13.20;70.40;;;;;;2215737;56;21046;-68
2024/02/11 00:14:33;;;;;;;3.55;0.88;;;13.10;70.40;;;;;;2435276;56;20958;-68
2024/02/11 00:17:00;;;;;;;0.95;0.30;;;13.00;70.30;;;;;;2435230;56;20970;-67
2024/02/11 00:19:27;;;;;;;0.70;0.30;;;12.90;70.30;;;;;;2216566;56;21077;-67
2024/02/11 00:21:53;;;;;;;1.60;0.40;;;12.90;70.40;;;;;;2435421;57;21018;-69
2024/02/11 00:24:20;;;;;;;0.77;0.40;;;12.80;70.50;;;;;;2219507;57;21450;-70
2024/02/11 00:26:46;;;;;;;0.52;0.30;;;12.70;70.50;;;;;;2435844;56;21674;-69
2024/02/11 00:29:12;;;;;;;0.40;0.30;;;12.60;70.50;;;;;;2435769;56;21006;-69
2024/02/11 00:31:39;;;;;;;1.20;0.30;;;12.60;70.50;;;;;;2216064;57;21038;-70
2024/02/11 00:34:08;;;;;;;1.00;0.32;;;12.50;70.30;;;;;;2215992;56;20954;-68
2024/02/11 00:36:37;;;;;;;0.95;0.37;;;12.40;70.30;;;;;;2215885;57;21339;-70
2024/02/11 00:39:05;;;;;;;1.10;0.30;;;12.30;70.30;;;;;;2435455;56;20974;-68
2024/02/11 00:41:32;;;;;;;0.73;0.30;;;12.20;70.50;;;;;;2216698;57;20977;-70
2024/02/11 00:44:00;;;;;;;0.60;0.20;;;12.00;70.20;;;;;;2435516;56;20997;-68
2024/02/11 00:46:26;;;;;;;1.30;0.43;;;12.10;70.50;;;;;;2216686;57;21053;-69
2024/02/11 00:48:53;;;;;;;0.35;0.20;;;12.00;70.50;;;;;;2216380;57;20978;-69
2024/02/11 00:51:20;;;;;;;1.48;0.40;;;12.00;70.60;;;;;;2216270;56;20978;-70
2024/02/11 00:53:48;;;;;;;1.62;0.30;;;11.90;70.40;;;;;;2216492;56;21092;-68
2024/02/11 00:56:17;;;;;;;0.85;0.40;;;11.90;70.50;;;;;;2216405;56;21180;-70
2024/02/11 00:58:43;;;;;;;1.23;0.57;;;11.80;70.50;;;;;;2216330;57;21505;-69
2024/02/11 01:01:10;;;;;;;1.33;0.47;;;11.70;70.50;;;;;;2218835;57;21357;-68
2024/02/11 01:03:37;;;;;;;0.70;0.40;;;11.70;70.70;;;;;;2215871;57;21053;-71
2024/02/11 01:06:04;;;;;;;2.17;0.57;;;11.60;70.50;;;;;;2216386;56;20989;-68
2024/02/11 01:08:30;;;;;;;1.42;0.50;;;11.60;70.50;;;;;;2216825;56;21259;-72
2024/02/11 01:10:56;;;;;;;1.20;0.57;;;11.50;70.50;;;;;;2436116;56;21026;-69
2024/02/11 01:13:26;;;;;;;0.70;0.40;;;11.50;70.70;;;;;;2436032;56;21046;-69
2024/02/11 01:15:52;;;;;;;0.80;0.50;;;11.40;70.80;;;;;;2435150;56;21452;-71
2024/02/11 01:18:19;;;;;;;1.08;0.55;;;11.30;70.80;;;;;;2435461;56;21029;-69
2024/02/11 01:20:48;;;;;;;1.55;0.70;;;11.30;71.00;;;;;;2216156;57;21001;-68
2024/02/11 01:23:15;;;;;;;1.23;0.60;;;11.20;70.90;;;;;;2216460;56;21100;-70
2024/02/11 01:25:42;;;;;;;1.60;0.70;;;11.20;71.10;;;;;;2435864;56;20966;-69
2024/02/11 01:28:09;;;;;;;1.20;0.50;;;11.20;71.20;;;;;;2216355;57;21087;-70
2024/02/11 01:30:36;;;;;;;1.73;0.70;;;11.10;71.30;;;;;;2435691;56;20982;-69
2024/02/11 01:33:03;;;;;;;1.62;0.70;;;11.10;71.40;;;;;;2215378;57;21021;-67
2024/02/11 01:35:29;;;;;;;1.55;0.75;;;11.00;71.40;;;;;;2436012;56;20977;-71
2024/02/11 01:37:56;;;;;;;1.98;0.98;;;11.00;71.30;;;;;;2216838;56;20957;-69
2024/02/11 01:40:23;;;;;;;3.08;0.90;;;11.00;71.40;;;;;;2434795;57;20977;-68
2024/02/11 01:42:55;;;;;;;2.75;1.00;;;11.00;71.50;;;;;;2213010;57;20946;-67
2024/02/11 01:45:21;;;;;;;3.17;1.00;;;11.00;71.60;;;;;;2435366;56;20981;-71
2024/02/11 01:47:47;;;;;;;2.12;0.90;;;10.90;71.40;;;;;;2216321;56;20982;-70
2024/02/11 01:50:16;;;;;;;2.03;1.05;;;10.90;71.50;;;;;;2435151;56;21030;-70
2024/02/11 01:52:44;;;;;;;1.90;0.95;;;10.90;71.60;;;;;;2215595;57;21014;-68
2024/02/11 01:55:10;;;;;;;2.40;1.10;;;10.80;71.50;;;;;;2215704;56;21163;-68
2024/02/11 01:57:37;;;;;;;3.00;1.10;;;10.80;71.50;;;;;;2435147;56;20946;-71
2024/02/11 02:00:04;;;;;;;2.17;1.10;;;10.80;71.60;;;;;;2215984;56;21475;-69
2024/02/11 02:02:31;;;;;;;1.87;0.98;;;10.80;71.60;;;;;;2216084;56;20970;-68
2024/02/11 02:04:59;;;;;;;1.83;0.90;;;10.80;71.70;;;;;;2215767;57;20966;-70
2024/02/11 02:07:25;;;;;;;2.47;1.02;;;10.70;71.70;;;;;;2216548;57;20981;-70
2024/02/11 02:09:55;;;;;;;1.70;0.80;;;10.70;71.90;;;;;;2215439;56;21010;-71
2024/02/11 02:12:22;;;;;;;2.78;0.80;;;10.70;71.90;;;;;;2214229;57;21028;-68
2024/02/11 02:14:48;;;;;;;1.90;1.00;;;10.70;72.00;;;;;;2216063;56;20974;-68
2024/02/11 02:17:14;;;;;;;2.47;1.00;;;10.60;71.90;;;;;;2216538;57;21531;-69
2024/02/11 02:19:41;;;;;;;6.32;1.10;;;10.60;71.90;;;;;;2216031;57;21510;-69
2024/02/11 02:22:07;;;;;;;2.15;1.05;;;10.60;71.90;;;;;;2218497;57;21120;-68
2024/02/11 02:24:33;;;;;;;1.70;0.82;;;10.60;72.00;;;;;;2219144;57;21446;-67
2024/02/11 02:27:00;;;;;;;1.33;0.70;;;10.60;72.00;;;;;;2214963;57;20954;-67
2024/02/11 02:29:26;;;;;;;2.00;0.80;;;10.60;72.10;;;;;;2215512;57;21038;-69
2024/02/11 02:31:52;;;;;;;1.58;0.80;;;10.70;72.20;;;;;;2434679;56;21006;-68
2024/02/11 02:34:19;;;;;;;1.73;0.90;;;10.60;72.10;;;;;;2218525;57;21978;-68
2024/02/11 02:36:48;;;;;;;1.90;0.90;;;10.60;72.10;;;;;;2214661;57;20978;-70
2024/02/11 02:39:20;;;;;;;1.83;0.82;;;10.60;72.20;;;;;;2216223;56;21033;-68
2024/02/11 02:41:46;;;;;;;1.52;0.77;;;10.50;72.10;;;;;;2435392;56;21484;-68
2024/02/11 02:44:12;;;;;;;1.83;0.85;;;10.50;72.10;;;;;;2435293;56;20966;-68
2024/02/11 02:46:39;;;;;;;1.85;0.93;;;10.50;72.10;;;;;;2216736;57;21888;-70
2024/02/11 02:49:05;;;;;;;1.83;0.90;;;10.50;72.10;;;;;;2214938;57;21078;-68
2024/02/11 02:51:32;;;;;;;1.35;0.73;;;10.50;72.20;;;;;;2216090;57;20998;-69
2024/02/11 02:53:58;;;;;;;1.67;0.80;;;10.50;72.20;;;;;;2435571;57;21038;-68
2024/02/11 02:56:26;;;;;;;3.20;0.90;;;10.50;72.30;;;;;;2435265;56;20995;-68
2024/02/11 02:58:53;;;;;;;1.70;0.88;;;10.50;72.30;;;;;;2219193;57;21001;-68
2024/02/11 03:01:22;;;;;;;1.50;0.70;;;10.50;72.20;;;;;;2216805;56;20962;-70
2024/02/11 03:03:49;;;;;;;1.30;0.80;;;10.50;72.30;;;;;;2435264;56;21037;-70
2024/02/11 03:06:16;;;;;;;1.42;0.80;;;10.40;72.00;;;;;;2215894;57;21042;-68
2024/02/11 03:08:42;;;;;;;1.50;0.80;;;10.40;72.00;;;;;;2216786;57;20970;-69
2024/02/11 03:11:09;;;;;;;2.50;1.12;;;10.40;72.00;;;;;;2215915;56;21014;-68
2024/02/11 03:13:35;;;;;;;2.05;0.90;;;10.40;72.10;;;;;;2216735;57;21431;-68
2024/02/11 03:16:06;;;;;;;2.50;0.85;;;10.40;72.00;;;;;;2435223;56;20946;-69
2024/02/11 03:18:32;;;;;;;1.60;0.73;;;10.40;72.10;;;;;;2436141;56;21529;-67
2024/02/11 03:20:59;;;;;;;1.95;0.80;;;10.30;72.10;;;;;;2216055;57;20997;-70
2024/02/11 03:23:26;;;;;;;1.90;0.75;;;10.30;72.10;;;;;;2216930;56;20958;-68
2024/02/11 03:25:53;;;;;;;2.72;0.80;;;10.30;72.10;;;;;;2215805;57;21009;-69
2024/02/11 03:28:21;;;;;;;1.80;0.90;;;10.30;72.20;;;;;;2436692;56;21006;-68
2024/02/11 03:30:48;;;;;;;1.73;0.70;;;10.30;72.20;;;;;;2438346;56;20966;-70
2024/02/11 03:33:14;;;;;;;2.00;0.90;;;10.30;72.30;;;;;;2215020;57;21006;-68
2024/02/11 03:35:41;;;;;;;2.10;0.93;;;10.30;72.30;;;;;;2431082;56;20995;-70
2024/02/11 03:38:08;;;;;;;1.85;0.82;;;10.30;72.40;;;;;;2212425;56;21266;-71
2024/02/11 03:40:35;;;;;;;2.00;0.80;;;10.30;72.40;;;;;;2216322;56;20958;-69
2024/02/11 03:43:02;;;;;;;2.65;1.00;;;10.30;72.50;;;;;;2215780;57;21050;-69
2024/02/11 03:45:29;;;;;;;1.92;0.93;;;10.30;72.50;;;;;;2216459;57;21394;-69
2024/02/11 03:47:56;;;;;;;1.42;0.80;;;10.30;72.50;;;;;;2215806;57;21089;-71
2024/02/11 03:50:25;;;;;;;1.80;0.90;;;10.20;72.40;;;;;;2216276;56;20981;-68
2024/02/11 03:52:52;;;;;;;2.62;0.90;;;10.20;72.40;;;;;;2216083;56;21053;-69
2024/02/11 03:55:21;;;;;;;3.37;1.20;;;10.20;73.10;;;;;;2435096;56;21526;-67
2024/02/11 03:57:47;;;;;;;2.05;1.00;;;10.30;73.30;;;;;;2216076;57;20966;-68
2024/02/11 04:00:19;;;;;;;1.95;0.90;;;10.30;72.60;;;;;;2216196;56;20978;-69
2024/02/11 04:02:45;;;;;;;3.10;1.12;;;10.20;72.50;;;;;;2216493;57;20980;-69
2024/02/11 04:05:15;;;;;;;2.90;1.17;;;10.20;72.50;;;;;;2434651;56;20999;-68
2024/02/11 04:07:45;;;;;;;2.53;1.10;;;10.30;72.60;;;;;;2436025;56;21372;-69
2024/02/11 04:10:19;;;;;;;2.45;1.00;;;10.20;72.60;;;;;;2219063;57;21125;-69
2024/02/11 04:12:47;;;;;;;2.75;1.10;;;10.20;72.50;;;;;;2435632;57;20961;-68
2024/02/11 04:15:19;;;;;;;2.70;1.12;;;10.20;72.60;;;;;;2435660;56;20978;-70
2024/02/11 04:17:49;;;;;;;2.62;1.12;;;10.30;72.70;;;;;;2432553;56;21528;-70
2024/02/11 04:20:23;;;;;;;1.87;0.95;;;10.20;72.70;;;;;;2216684;56;20988;-69
2024/02/11 04:22:58;;;;;;;4.37;1.40;;;10.20;72.70;;;;;;2219737;56;21474;-70
2024/02/11 04:25:30;;;;;;;3.47;1.35;;;10.20;72.70;;;;;;2435340;56;21006;-68
2024/02/11 04:27:56;;;;;;;2.92;1.20;;;10.20;72.60;;;;;;2434890;56;21078;-69
2024/02/11 04:30:23;;;;;;;3.25;1.30;;;10.20;72.60;;;;;;2216308;57;20970;-68
2024/02/11 04:32:51;;;;;;;2.78;1.33;;;10.20;72.60;;;;;;2435348;56;20989;-70
2024/02/11 04:35:17;;;;;;;2.72;1.27;;;10.20;72.70;;;;;;2216029;56;21045;-68
2024/02/11 04:37:46;;;;;;;3.78;1.80;;;10.20;72.70;;;;;;2216891;56;20998;-69
2024/02/11 04:40:18;;;;;;;5.22;1.98;;;10.20;72.70;;;;;;2215884;57;21030;-70
2024/02/11 04:42:45;;;;;;;3.80;1.80;;;10.20;72.60;;;;;;2217065;57;20985;-68
2024/02/11 04:45:15;;;;;;;6.05;2.03;;;10.20;72.70;;;;;;2215989;57;21218;-68
2024/02/11 04:47:45;;;;;;;4.43;1.98;;;10.20;72.70;;;;;;2436010;56;21037;-68
2024/02/11 04:50:15;;;;;;;4.60;1.92;;;10.20;72.70;;;;;;2215693;57;20986;-69
2024/02/11 04:52:54;;;;;;;3.75;2.00;;;10.30;72.80;;;;;;2435769;56;21005;-70
2024/02/11 04:55:24;;;;;;;5.32;2.17;;;10.20;72.70;;;;;;2435313;56;21819;-70
2024/02/11 04:57:56;;;;;;;5.78;2.40;;;10.30;72.80;;;;;;2215104;57;21243;-68
2024/02/11 05:00:26;;;;;;;7.60;2.53;;;10.30;72.80;;;;;;2216382;56;20986;-68
2024/02/11 05:03:06;;;;;;;6.03;3.03;;;10.30;72.90;;;;;;2219363;57;21010;-68
2024/02/11 05:05:34;;;;;;;5.80;3.20;;;10.30;72.80;;;;;;2216184;57;21435;-71
2024/02/11 05:08:02;;;;;;;5.15;2.90;;;10.30;72.80;;;;;;2436246;56;20965;-69
2024/02/11 05:10:30;;;;;;;7.55;3.20;;;10.30;72.90;;;;;;2435052;56;21039;-68
2024/02/11 05:12:57;;;;;;;5.35;2.92;;;10.30;72.90;;;;;;2216357;57;21017;-71
2024/02/11 05:15:24;;;;;;;5.12;3.05;;;10.30;72.90;;;;;;2434765;56;21855;-67
2024/02/11 05:17:50;;;;;;;5.95;3.03;;;10.30;72.90;;;;;;2216353;57;20982;-68
2024/02/11 05:20:21;;;;;;;4.97;2.83;;;10.30;72.90;;;;;;2435333;56;21002;-69
2024/02/11 05:22:55;;;;;;;6.37;2.92;;;10.30;72.90;;;;;;2216332;57;20993;-70
2024/02/11 05:25:22;;;;;;;5.30;2.65;;;10.30;72.90;;;;;;2215857;57;20982;-69
2024/02/11 05:27:56;;;;;;;6.18;3.15;;;10.30;72.90;;;;;;2216266;56;20994;-68
2024/02/11 05:30:24;;;;;;;6.37;2.62;;;10.30;72.90;;;;;;2215721;56;21065;-70
2024/02/11 05:32:53;;;;;;;5.10;2.58;;;10.30;72.90;;;;;;2434672;56;21789;-68
2024/02/11 05:35:23;;;;;;;8.15;2.78;;;10.30;72.90;;;;;;2216807;57;21001;-71
2024/02/11 05:37:58;;;;;;;7.35;3.10;;;10.30;72.90;;;;;;2219366;57;20966;-69
2024/02/11 05:40:28;;;;;;;7.93;2.97;;;10.30;72.80;;;;;;2435535;56;21872;-68
2024/02/11 05:42:54;;;;;;;8.30;3.47;;;10.30;72.90;;;;;;2435254;57;20989;-68
2024/02/11 05:45:20;;;;;;;8.15;3.05;;;10.30;72.90;;;;;;2216148;57;21037;-68
2024/02/11 05:47:51;;;;;;;6.43;2.60;;;10.30;72.90;;;;;;2216658;56;21411;-70
2024/02/11 05:50:17;;;;;;;5.70;2.75;;;10.30;72.90;;;;;;2435348;56;20965;-70
2024/02/11 05:52:44;;;;;;;8.73;3.10;;;10.30;72.90;;;;;;2216025;56;21022;-68
2024/02/11 05:55:11;;;;;;;7.68;3.12;;;10.30;72.90;;;;;;2215972;57;21013;-69
2024/02/11 05:57:41;;;;;;;5.45;2.78;;;10.30;72.90;;;;;;2435904;56;21007;-71
2024/02/11 06:00:18;;;;;;;7.40;2.80;;;10.30;72.90;;;;;;2215729;57;21475;-70
2024/02/11 06:02:45;;;;;;;6.05;3.08;;;10.30;72.90;;;;;;2216819;57;21304;-68
2024/02/11 06:05:12;;;;;;;6.35;3.08;;;10.30;73.00;;;;;;2434577;56;20981;-70
2024/02/11 06:07:43;;;;;;;8.25;3.30;;;10.40;73.10;;;;;;2216317;56;21270;-70
2024/02/11 06:10:12;;;;;;;7.57;2.83;;;10.30;72.90;;;;;;2435388;56;21031;-68
2024/02/11 06:12:39;;;;;;;6.40;3.00;;;10.40;73.00;;;;;;2216413;57;21025;-69
2024/02/11 06:15:10;;;;;;;7.90;3.20;;;10.40;73.10;;;;;;2435101;56;21502;-68
2024/02/11 06:17:40;;;;;;;7.95;3.17;;;10.40;73.00;;;;;;2216426;57;21057;-70
2024/02/11 06:20:09;;;;;;;4.00;2.37;;;10.40;73.00;;;;;;2215787;57;21470;-69
2024/02/11 06:22:36;;;;;;;5.55;2.60;;;10.40;73.00;;;;;;2436452;56;22140;-68
2024/02/11 06:25:03;;;;;;;7.12;2.78;;;10.40;72.90;;;;;;2434813;56;21054;-69
2024/02/11 06:27:29;;;;;;;5.68;2.70;;;10.40;72.90;;;;;;2219790;57;20969;-68
2024/02/11 06:29:57;;;;;;;6.70;3.12;;;10.40;72.90;;;;;;2435737;56;21041;-69
2024/02/11 06:32:23;;;;;;;6.55;2.72;;;10.40;72.90;;;;;;2216668;56;20946;-70
2024/02/11 06:34:52;;;;;;;8.13;2.80;;;10.40;72.90;;;;;;2215931;56;21030;-68
2024/02/11 06:37:19;;;;;;;6.82;2.65;;;10.40;72.90;;;;;;2435405;56;21452;-68
2024/02/11 06:39:46;;;;;;;5.22;2.35;;;10.40;72.90;;;;;;2216738;56;20978;-69
2024/02/11 06:42:14;;;;;;;6.78;2.70;;;10.40;72.90;;;;;;2434439;56;20957;-70
2024/02/11 06:44:41;;;;;;;7.28;2.85;;;10.40;72.90;;;;;;2435028;56;20974;-68
2024/02/11 06:47:10;;;;;;;5.60;3.15;;;10.40;72.90;;;;;;2215875;56;21014;-70
2024/02/11 06:49:40;;;;;;;5.55;2.78;;;10.40;72.90;;;;;;2216196;56;20994;-68
2024/02/11 06:52:09;;;;;;;6.12;3.15;;;10.40;72.90;;;;;;2435058;56;20953;-68
2024/02/11 06:54:38;;;;;;;9.70;3.25;;;10.40;72.90;;;;;;2216301;57;21370;-70
2024/02/11 06:57:09;;;;;;;7.90;3.17;;;10.40;72.90;;;;;;2435311;56;21053;-69
2024/02/11 06:59:36;;;;;;;7.60;3.05;;;10.40;72.80;;;;;;2436138;56;21038;-69
2024/02/11 07:02:04;;;;;;;6.30;2.87;;;10.40;72.70;;;;;;2435418;56;20954;-68
2024/02/11 07:04:34;;;;;;;9.65;3.30;;;10.40;72.70;;;;;;2435769;56;21030;-70
2024/02/11 07:07:03;;;;;;;6.97;3.00;;;10.40;72.70;;;;;;2222017;57;21010;-70
2024/02/11 07:09:29;;;;;;;6.05;2.90;;;10.40;73.40;;;;;;2436152;56;20962;-68
2024/02/11 07:12:02;;;;;;;5.78;2.65;;;10.40;72.80;;;;;;2216300;56;20978;-68
2024/02/11 07:14:28;;;;;;;;;;;10.40;72.90;;;;;;2439273;56;20978;-68
2024/02/11 07:16:58;;;;;;;4.95;2.40;;;10.40;71.90;;;;;;2435865;56;20078;-68
2024/02/11 07:19:24;;;;;;;6.60;2.95;;;10.50;72.80;;;;;;2438616;56;20949;-68
2024/02/11 07:21:53;;;;;;;7.40;2.95;;;10.40;72.70;;;;;;2217906;56;20973;-70
2024/02/11 07:24:20;;;;;;;11.70;3.37;;;10.40;72.80;;;;;;2434542;56;21843;-69
2024/02/11 07:26:50;;;;;;;6.57;3.28;;;10.40;72.90;;;;;;2218083;57;20950;-68
2024/02/11 07:29:20;;;;;;;7.72;3.28;;;10.40;72.80;;;;;;2432521;56;20986;-70
2024/02/11 07:31:48;;;;;;;7.40;3.15;;;10.40;72.90;;;;;;2435072;56;20930;-69
2024/02/11 07:34:14;;;;;;;5.82;2.90;;;10.40;73.00;;;;;;2434589;56;21295;-70
2024/02/11 07:36:42;;;;;;;7.22;3.20;;;10.40;73.00;;;;;;2434848;56;21803;-68
2024/02/11 07:39:08;;;;;;;7.45;3.62;;;10.50;73.10;;;;;;2433798;56;21026;-70
2024/02/11 07:41:35;;;;;;;7.47;3.42;;;10.50;73.20;;;;;;2222869;57;20989;-70
2024/02/11 07:44:01;;;;;;;7.30;3.62;;;10.50;73.10;;;;;;2216603;56;20958;-69
2024/02/11 07:46:29;;;;;;;8.65;3.33;;;10.50;73.20;;;;;;2217117;57;21709;-69
2024/02/11 07:49:02;;;;;;;7.28;3.55;;;10.50;73.30;;;;;;2434799;57;21215;-70
2024/02/11 07:51:29;;;;;;;7.35;3.47;;;10.50;73.20;;;;;;2435297;56;21053;-69
2024/02/11 07:53:57;;;;;;;7.78;3.30;;;10.50;73.90;;;;;;2435597;56;21006;-69
2024/02/11 07:56:25;;;;;;;9.88;3.67;;;10.50;73.30;;;;;;2435527;56;21005;-67
2024/02/11 07:58:51;;;;;;;8.68;4.10;;;10.60;73.30;;;;;;2435771;56;20985;-67
2024/02/11 08:01:17;;;;;;;8.82;3.37;;;10.60;73.30;;;;;;2434365;56;20966;-69
2024/02/11 08:03:44;;;;;;;6.18;3.60;;;10.60;73.40;;;;;;2215756;57;21017;-68
2024/02/11 08:06:10;;;;;;;10.15;3.78;;;10.60;73.40;;;;;;2218303;57;21191;-68
2024/02/11 08:08:37;;;;;;;7.22;3.58;;;10.60;73.40;;;;;;2434720;56;21204;-70
2024/02/11 08:11:05;;;;;;;10.38;4.32;;;10.60;73.40;;;;;;2215247;56;21015;-68
2024/02/11 08:13:32;;;;;;;11.88;4.07;;;10.70;73.50;;;;;;2434828;56;22198;-67
2024/02/11 08:16:00;;;;;;;6.78;3.42;;;10.70;73.50;;;;;;2434511;56;21018;-68
2024/02/11 08:18:29;;;;;;;8.38;3.60;;;10.70;73.50;;;;;;2435146;57;21457;-68
2024/02/11 08:20:57;;;;;;;6.80;3.55;;;10.70;73.60;;;;;;2202214;57;21133;-69
2024/02/11 08:23:24;;;;;;;12.20;4.20;;;10.70;73.50;;;;;;2216653;56;20954;-68
2024/02/11 08:25:51;;;;;;;11.45;4.20;;;10.80;73.60;;;;;;2215371;57;21077;-70
2024/02/11 08:28:18;;;;;;;6.40;3.60;;;10.80;73.60;;;;;;2434929;56;21077;-69
2024/02/11 08:30:44;;;;;;;6.95;3.60;;;10.80;73.60;;;;;;2435874;56;21440;-68
2024/02/11 08:33:11;;;;;;;6.65;3.80;;;10.80;73.70;;;;;;2433814;56;21269;-68
2024/02/11 08:35:38;;;;;;;9.15;3.83;;;10.90;73.70;;;;;;2435381;56;21753;-70
2024/02/11 08:38:04;;;;;;;8.18;3.22;;;10.90;73.60;;;;;;2434335;56;21780;-68
2024/02/11 08:40:31;;;;;;;8.55;3.70;;;10.90;73.70;;;;;;2435588;56;20987;-68
2024/02/11 08:42:57;;;;;;;6.80;3.47;;;11.00;73.80;;;;;;2435200;56;21466;-68
2024/02/11 08:45:24;;;;;;;7.95;3.28;;;11.00;73.80;;;;;;2435045;56;20982;-68
2024/02/11 08:47:50;;;;;;;7.82;3.72;;;11.00;73.80;;;;;;2434678;56;21015;-68
2024/02/11 08:50:17;;;;;;;9.20;3.35;;;11.00;73.80;;;;;;2215536;56;21050;-67
2024/02/11 08:52:49;;;;;;;8.00;3.72;;;11.10;73.90;;;;;;2435595;56;21002;-69
2024/02/11 08:55:17;;;;;;;8.82;3.08;;;11.10;73.80;;;;;;2215671;57;21826;-68
2024/02/11 08:57:47;;;;;;;8.27;3.35;;;11.10;73.80;;;;;;2216692;56;21045;-68
2024/02/11 09:00:18;;;;;;;6.07;2.80;;;11.20;73.90;;;;;;2215528;57;20985;-67
2024/02/11 09:02:49;;;;;;;7.05;3.35;;;11.20;73.80;;;;;;2216457;57;21033;-69
2024/02/11 09:05:16;;;;;;;7.80;3.53;;;11.20;73.70;;;;;;2434859;56;21978;-68
2024/02/11 09:07:42;;;;;;;7.12;3.33;;;11.20;73.70;;;;;;2435618;56;21073;-68
2024/02/11 09:10:09;;;;;;;5.85;2.70;;;11.30;73.90;;;;;;2431408;56;20981;-67
2024/02/11 09:12:35;;;;;;;6.00;3.03;;;11.30;73.90;;;;;;2215659;56;20954;-68
2024/02/11 09:15:02;;;;;;;6.30;2.60;;;11.30;73.90;;;;;;2434958;56;21018;-68
2024/02/11 09:17:32;;;;;;;6.53;2.85;;;11.40;74.00;;;;;;2219796;57;20982;-69
2024/02/11 09:20:02;;;;;;;6.90;2.80;;;11.40;74.00;;;;;;2216102;57;21402;-69
2024/02/11 09:22:29;;;;;;;5.35;2.72;;;11.40;73.90;;;;;;2435917;57;20957;-68
2024/02/11 09:24:55;;;;;;;7.28;2.92;;;11.50;73.90;;;;;;2216348;57;21550;-67
2024/02/11 09:27:22;;;;;;;6.65;2.70;;;11.50;73.80;;;;;;2435135;56;21767;-70
2024/02/11 09:29:52;;;;;;;5.25;2.37;;;11.50;73.80;;;;;;2435646;56;20997;-70
2024/02/11 09:32:18;;;;;;;6.72;2.60;;;11.60;73.80;;;;;;2430528;56;21030;-68
2024/02/11 09:34:47;;;;;;;4.57;2.42;;;11.60;73.80;;;;;;2421782;56;20957;-68
2024/02/11 09:37:14;;;;;;;6.53;2.62;;;11.60;73.70;;;;;;2426224;56;21039;-68
2024/02/11 09:39:40;;;;;;;6.55;2.83;;;11.60;73.80;;;;;;2425638;56;21054;-69
2024/02/11 09:42:06;;;;;;;4.90;2.80;;;11.60;73.70;;;;;;2211575;57;21248;-69
2024/02/11 09:44:34;;;;;;;4.65;2.45;;;11.70;73.80;;;;;;2216571;57;20985;-69
2024/02/11 09:47:01;;;;;;;6.25;2.67;;;11.70;73.90;;;;;;2434072;56;21089;-68
2024/02/11 09:49:28;;;;;;;4.62;2.00;;;11.70;74.00;;;;;;2435623;56;21023;-69
2024/02/11 09:51:57;;;;;;;4.85;2.37;;;11.80;74.00;;;;;;2435898;56;20978;-69
2024/02/11 09:54:26;;;;;;;5.03;2.35;;;11.80;74.10;;;;;;2215653;56;21061;-68
2024/02/11 09:56:53;;;;;;;5.72;2.53;;;11.80;74.10;;;;;;2215468;56;20966;-68
2024/02/11 09:59:26;;;;;;;4.70;1.95;;;11.80;74.10;;;;;;2215237;57;20982;-68
2024/02/11 10:01:56;;;;;;;4.57;2.37;;;11.90;74.10;;;;;;2215523;57;20950;-68
2024/02/11 10:04:27;;;;;;;5.93;2.35;;;11.90;73.90;;;;;;2215751;56;21894;-69
2024/02/11 10:06:57;;;;;;;7.25;2.85;;;12.00;74.00;;;;;;2216053;57;21045;-68
2024/02/11 10:09:28;;;;;;;3.90;2.10;;;12.00;73.90;;;;;;2434923;56;20929;-69
2024/02/11 10:11:55;;;;;;;4.95;2.30;;;12.00;73.80;;;;;;2219503;57;20974;-69
2024/02/11 10:14:26;;;;;;;4.85;2.33;;;12.00;73.60;;;;;;2434089;56;20970;-71
2024/02/11 10:16:54;;;;;;;5.40;2.50;;;12.10;73.60;;;;;;2216661;57;20961;-71
2024/02/11 10:19:22;;;;;;;5.15;2.15;;;12.10;73.50;;;;;;2215821;56;21506;-69
2024/02/11 10:21:48;;;;;;;6.12;2.30;;;12.10;73.50;;;;;;2216409;57;21238;-69
2024/02/11 10:24:17;;;;;;;5.22;2.45;;;12.10;73.50;;;;;;2215564;57;21081;-70
2024/02/11 10:26:47;;;;;;;3.85;2.10;;;12.10;73.60;;;;;;2435438;56;20950;-72
2024/02/11 10:29:15;;;;;;;5.50;2.55;;;12.20;73.60;;;;;;2219500;57;20954;-69
2024/02/11 10:31:41;;;;;;;4.45;2.15;;;12.20;73.60;;;;;;2215946;57;20958;-69
2024/02/11 10:34:13;;;;;;;4.12;2.05;;;12.20;74.20;;;;;;2434849;56;21010;-70
2024/02/11 10:36:40;;;;;;;4.15;2.20;;;12.20;73.50;;;;;;2216186;56;21517;-70
2024/02/11 10:39:08;;;;;;;5.80;2.33;;;12.20;73.50;;;;;;2215439;57;21022;-67
2024/02/11 10:41:38;;;;;;;4.35;2.25;;;12.30;73.60;;;;;;2216213;56;21303;-69
2024/02/11 10:44:06;;;;;;;4.95;2.25;;;12.30;73.50;;;;;;2214953;57;21049;-69
2024/02/11 10:46:33;;;;;;;4.70;2.08;;;12.30;73.80;;;;;;2216554;57;21912;-69
2024/02/11 10:49:02;;;;;;;6.05;2.50;;;12.40;74.10;;;;;;2215865;56;20966;-66
2024/02/11 10:51:31;;;;;;;4.97;2.70;;;12.40;74.40;;;;;;2215890;57;21010;-71
2024/02/11 10:53:59;;;;;;;5.78;2.45;;;12.50;74.80;;;;;;2219440;57;21654;-68
2024/02/11 10:56:29;;;;;;;6.43;2.40;;;12.60;75.40;;;;;;2438020;56;21457;-69
2024/02/11 10:59:23;;;;;;;6.93;2.70;;;12.60;75.70;;;;;;2436370;56;20994;-69
2024/02/11 11:01:50;;;;;;;4.40;2.00;;;12.70;75.30;;;;;;2216381;56;21021;-69
2024/02/11 11:04:19;;;;;;;5.43;2.22;;;12.80;76.10;;;;;;2434282;56;21018;-69
2024/02/11 11:06:46;;;;;;;6.18;2.28;;;12.90;75.90;;;;;;2216368;57;21037;-68
2024/02/11 11:09:12;;;;;;;5.40;2.53;;;12.90;75.90;;;;;;2215433;57;21061;-70
2024/02/11 11:11:39;;;;;;;7.80;2.65;;;13.10;75.90;;;;;;2435138;56;20954;-70
2024/02/11 11:14:09;;;;;;;8.02;2.65;;;13.10;75.70;;;;;;2215439;57;21406;-69
2024/02/11 11:16:38;;;;;;;5.40;2.08;;;13.20;75.50;;;;;;2216946;57;20962;-68
2024/02/11 11:19:12;;;;;;;3.70;1.70;;;13.30;75.70;;;;;;2215298;56;20978;-70
2024/02/11 11:21:49;;;;;;;3.92;2.00;;;13.30;75.40;;;;;;2216034;57;21028;-68
2024/02/11 11:24:18;;;;;;;4.82;1.90;;;13.40;74.90;;;;;;2434331;56;20985;-69
2024/02/11 11:26:55;;;;;;;3.62;1.62;;;13.50;75.40;;;;;;2216668;57;21018;-69
2024/02/11 11:29:25;;;;;;;4.75;1.75;;;13.50;75.20;;;;;;2434510;56;21014;-69
2024/02/11 11:31:59;;;;;;;5.35;2.30;;;13.50;74.90;;;;;;2435063;56;20986;-70
2024/02/11 11:34:28;;;;;;;4.32;2.40;;;13.60;74.70;;;;;;2434254;56;20979;-71
2024/02/11 11:36:55;;;;;;;5.07;2.00;;;13.60;74.30;;;;;;2437450;56;20981;-71
2024/02/11 11:39:25;;;;;;;4.00;2.05;;;13.70;74.20;;;;;;2218552;57;20993;-69
2024/02/11 11:41:53;;;;;;;5.15;1.98;;;13.70;74.00;;;;;;2215613;56;20988;-69
2024/02/11 11:44:20;;;;;;;4.43;1.90;;;13.70;74.00;;;;;;2215670;56;20992;-69
2024/02/11 11:46:47;;;;;;;4.05;1.92;;;13.70;73.90;;;;;;2436261;56;21486;-71
2024/02/11 11:49:13;;;;;;;4.78;1.90;;;13.80;74.10;;;;;;2215832;56;20933;-69
2024/02/11 11:51:39;;;;;;;4.95;1.60;;;13.80;74.00;;;;;;2436013;57;20969;-68
2024/02/11 11:54:06;;;;;;;3.95;2.08;;;13.80;73.80;;;;;;2216066;56;21050;-69
2024/02/11 11:56:33;;;;;;;4.35;1.70;;;13.80;73.40;;;;;;2215963;56;21000;-68
2024/02/11 11:59:04;;;;;;;4.78;1.73;;;13.80;72.90;;;;;;2216626;57;20976;-68
2024/02/11 12:01:30;;;;;;;3.92;1.75;;;13.80;72.50;;;;;;2216111;57;21050;-68
2024/02/11 12:03:57;;;;;;;4.53;1.52;;;13.80;72.30;;;;;;2435843;56;20970;-69
2024/02/11 12:06:23;;;;;;;5.30;1.87;;;13.80;72.30;;;;;;2434502;56;20978;-69
2024/02/11 12:08:49;;;;;;;3.53;1.70;;;13.90;72.60;;;;;;2216140;57;21072;-69
2024/02/11 12:11:17;;;;;;;4.07;1.67;;;13.90;72.80;;;;;;2215450;56;20954;-70
2024/02/11 12:13:44;;;;;;;3.70;2.00;;;13.90;72.90;;;;;;2434955;57;20968;-70
2024/02/11 12:16:18;;;;;;;5.60;2.03;;;13.90;72.80;;;;;;2215324;56;20949;-69
2024/02/11 12:18:45;;;;;;;3.95;1.83;;;13.90;72.90;;;;;;2216433;57;21748;-69
2024/02/11 12:21:11;;;;;;;4.50;1.58;;;13.90;72.80;;;;;;2435573;56;21533;-69
2024/02/11 12:23:38;;;;;;;3.87;1.80;;;13.80;72.70;;;;;;2436244;56;21037;-69
2024/02/11 12:26:06;;;;;;;4.05;1.10;;;14.00;72.70;;;;;;2435084;56;21022;-68
2024/02/11 12:28:33;;;;;;;4.45;1.60;;;14.00;72.70;;;;;;2219233;57;22531;-69
2024/02/11 12:31:15;;;;;;;3.97;1.87;;;14.00;72.40;;;;;;2435603;56;21362;-70
2024/02/11 12:33:49;;;;;;;4.90;1.60;;;14.00;72.50;;;;;;2216799;57;20950;-70
2024/02/11 12:36:22;;;;;;;3.75;1.58;;;14.00;72.60;;;;;;2435077;56;21030;-70
2024/02/11 12:38:53;;;;;;;3.95;1.48;;;14.10;73.10;;;;;;2223366;56;21009;-70
2024/02/11 12:41:23;;;;;;;3.00;1.37;;;14.10;73.50;;;;;;2220046;56;21025;-69
2024/02/11 12:43:52;;;;;;;3.25;1.20;;;14.20;73.50;;;;;;2216907;57;20993;-69
2024/02/11 12:46:22;;;;;;;2.10;1.00;;;14.20;73.70;;;;;;2215183;57;21583;-71
2024/02/11 12:48:49;;;;;;;2.92;1.02;;;14.30;73.90;;;;;;2435520;56;21030;-68
2024/02/11 12:51:17;;;;;;;3.28;1.05;;;14.40;74.00;;;;;;2217730;57;20949;-68
2024/02/11 12:53:45;;;;;;;2.42;0.98;;;14.40;73.60;;;;;;2219526;56;21025;-69